createdAt,value
2017-03-02T00:00:14.143Z,3.33
2017-03-02T00:01:14.181Z,3.32
2017-03-02T00:02:14.188Z,3.26
2017-03-02T00:03:14.191Z,3.26
2017-03-02T00:04:14.208Z,3.29
2017-03-02T00:05:14.239Z,3.39
2017-03-02T00:06:13.856Z,3.29
2017-03-02T00:07:14.287Z,3.23
2017-03-02T00:08:14.272Z,3.17
2017-03-02T00:09:14.304Z,3.23
2017-03-02T00:10:14.306Z,3.31
2017-03-02T00:11:14.324Z,3.29
2017-03-02T00:14:14.374Z,3.18
2017-03-02T00:15:14.391Z,3.24
2017-03-02T00:16:14.022Z,3.2
2017-03-02T00:18:14.472Z,3.21
2017-03-02T00:19:14.469Z,3.15
2017-03-02T00:20:14.496Z,3.18
2017-03-02T00:21:14.490Z,3.21
2017-03-02T00:22:14.506Z,3.35
2017-03-02T00:23:14.524Z,3.33
2017-03-02T00:24:28.680Z,3.35
2017-03-02T00:25:29.086Z,3.36
2017-03-02T00:26:14.569Z,3.33
2017-03-02T00:27:14.586Z,3.31
2017-03-02T00:28:14.605Z,3.35
2017-03-02T00:29:29.148Z,3.42
2017-03-02T00:30:14.652Z,3.43
2017-03-02T00:31:14.652Z,3.39
2017-03-02T00:32:14.677Z,3.42
2017-03-02T00:33:14.700Z,3.47
2017-03-02T00:34:14.703Z,3.5
2017-03-02T00:36:14.744Z,3.52
2017-03-02T00:37:14.791Z,3.55
2017-03-02T00:38:14.772Z,3.57
2017-03-02T00:39:14.800Z,3.57
2017-03-02T00:40:29.333Z,3.6
2017-03-02T00:41:14.437Z,3.61
2017-03-02T00:42:14.836Z,3.52
2017-03-02T00:43:14.860Z,3.57
2017-03-02T00:44:29.398Z,3.58
2017-03-02T00:45:14.904Z,3.72
2017-03-02T00:46:14.526Z,3.72
2017-03-02T00:47:14.918Z,3.75
2017-03-02T00:48:14.948Z,3.8
2017-03-02T00:49:14.959Z,3.7
2017-03-02T00:50:14.973Z,3.76
2017-03-02T00:51:14.996Z,3.65
2017-03-02T00:52:15.015Z,3.73
2017-03-02T00:53:15.022Z,3.84
2017-03-02T00:54:29.568Z,3.78
2017-03-02T00:55:14.680Z,3.72
2017-03-02T00:56:29.594Z,3.87
2017-03-02T00:57:15.090Z,3.83
2017-03-02T00:58:15.100Z,3.83
2017-03-02T00:59:29.666Z,3.86
2017-03-02T01:00:14.756Z,3.88
2017-03-02T01:01:15.164Z,3.91
2017-03-02T01:02:15.186Z,3.93
2017-03-02T01:03:15.205Z,3.91
2017-03-02T01:04:15.209Z,3.9
2017-03-02T01:05:15.219Z,4.04
2017-03-02T01:06:15.243Z,4.02
2017-03-02T01:07:15.262Z,3.96
2017-03-02T01:09:14.939Z,4
2017-03-02T01:10:15.310Z,4.05
2017-03-02T01:11:15.342Z,4.04
2017-03-02T01:12:29.863Z,4.02
2017-03-02T01:13:15.356Z,4.04
2017-03-02T01:14:15.720Z,3.97
2017-03-02T01:15:15.390Z,4.02
2017-03-02T01:16:15.406Z,3.98
2017-03-02T01:17:15.432Z,3.98
2017-03-02T01:18:15.453Z,3.98
2017-03-02T01:19:15.459Z,4.02
2017-03-02T01:20:15.100Z,4.12
2017-03-02T01:21:15.098Z,4.06
2017-03-02T01:22:15.515Z,4.08
2017-03-02T01:23:15.136Z,4.16
2017-03-02T01:24:15.546Z,4.09
2017-03-02T01:25:15.774Z,4.2
2017-03-02T01:26:15.580Z,4.09
2017-03-02T01:27:30.115Z,4.18
2017-03-02T01:28:15.631Z,4.15
2017-03-02T01:29:15.644Z,4.05
2017-03-02T01:30:15.638Z,4.04
2017-03-02T01:31:15.271Z,4.05
2017-03-02T01:32:15.673Z,4.06
2017-03-02T01:33:15.701Z,4.15
2017-03-02T01:34:15.717Z,4.18
2017-03-02T01:36:15.748Z,4.2
2017-03-02T01:37:15.761Z,4.18
2017-03-02T01:38:15.774Z,4.11
2017-03-02T01:39:15.808Z,4.23
2017-03-02T01:41:15.844Z,4.23
2017-03-02T01:42:30.374Z,4.4
2017-03-02T01:43:15.857Z,4.36
2017-03-02T01:44:15.872Z,4.37
2017-03-02T01:45:15.516Z,4.3
2017-03-02T01:46:15.907Z,4.34
2017-03-02T01:47:15.932Z,4.22
2017-03-02T01:48:15.952Z,4.3
2017-03-02T01:49:15.973Z,4.22
2017-03-02T01:51:16.001Z,4.32
2017-03-02T01:52:16.025Z,4.37
2017-03-02T01:53:30.563Z,4.37
2017-03-02T01:54:16.054Z,4.37
2017-03-02T01:55:16.071Z,4.32
2017-03-02T01:56:16.251Z,4.37
2017-03-02T01:57:16.092Z,4.34
2017-03-02T01:58:16.121Z,4.22
2017-03-02T02:00:16.167Z,4.24
2017-03-02T02:01:16.162Z,4.26
2017-03-02T02:02:16.181Z,4.18
2017-03-02T02:03:16.206Z,4.09
2017-03-02T02:04:16.235Z,4.11
2017-03-02T02:05:15.839Z,4.16
2017-03-02T02:06:16.258Z,4.23
2017-03-02T02:07:16.283Z,4.15
2017-03-02T02:08:16.282Z,4.32
2017-03-02T02:10:16.315Z,4.2
2017-03-02T02:11:16.330Z,4.27
2017-03-02T02:13:16.360Z,4.37
2017-03-02T02:14:16.381Z,4.33
2017-03-02T02:15:30.923Z,4.36
2017-03-02T02:16:16.427Z,4.32
2017-03-02T02:17:16.445Z,4.4
2017-03-02T02:18:16.452Z,4.34
2017-03-02T02:19:16.484Z,4.34
2017-03-02T02:20:16.489Z,4.4
2017-03-02T02:21:31.023Z,4.3
2017-03-02T02:23:16.538Z,4.36
2017-03-02T02:24:16.546Z,4.33
2017-03-02T02:25:16.568Z,4.4
2017-03-02T02:26:16.602Z,4.36
2017-03-02T02:27:16.598Z,4.34
2017-03-02T02:28:16.633Z,4.51
2017-03-02T02:29:16.647Z,4.44
2017-03-02T02:31:31.195Z,4.48
2017-03-02T02:32:16.296Z,4.48
2017-03-02T02:33:31.231Z,4.41
2017-03-02T02:34:16.738Z,4.47
2017-03-02T02:35:16.777Z,4.48
2017-03-02T02:36:16.765Z,4.42
2017-03-02T02:37:16.782Z,4.52
2017-03-02T02:38:16.787Z,4.45
2017-03-02T02:39:16.819Z,4.48
2017-03-02T02:40:16.817Z,4.54
2017-03-02T02:41:16.455Z,4.48
2017-03-02T02:42:16.851Z,4.55
2017-03-02T02:44:16.891Z,4.62
2017-03-02T02:45:16.903Z,4.59
2017-03-02T02:46:31.455Z,4.5
2017-03-02T02:47:31.466Z,4.55
2017-03-02T02:48:17.015Z,4.63
2017-03-02T02:50:16.993Z,4.63
2017-03-02T02:51:17.034Z,4.69
2017-03-02T02:52:31.551Z,4.63
2017-03-02T02:53:17.062Z,4.66
2017-03-02T02:54:17.069Z,4.63
2017-03-02T02:55:17.075Z,4.7
2017-03-02T02:56:16.705Z,4.7
2017-03-02T02:57:17.136Z,4.77
2017-03-02T02:59:17.144Z,4.67
2017-03-02T03:00:17.161Z,4.7
2017-03-02T03:01:17.178Z,4.72
2017-03-02T03:02:31.743Z,4.73
2017-03-02T03:03:17.222Z,4.73
2017-03-02T03:04:17.255Z,4.8
2017-03-02T03:05:17.248Z,4.72
2017-03-02T03:06:17.262Z,4.73
2017-03-02T03:07:31.808Z,4.67
2017-03-02T03:08:31.823Z,4.67
2017-03-02T03:09:17.329Z,4.72
2017-03-02T03:10:17.350Z,4.8
2017-03-02T03:11:17.347Z,4.72
2017-03-02T03:12:17.363Z,4.72
2017-03-02T03:14:17.400Z,4.82
2017-03-02T03:15:17.419Z,4.88
2017-03-02T03:16:17.437Z,4.82
2017-03-02T03:17:17.454Z,4.78
2017-03-02T03:18:17.467Z,4.78
2017-03-02T03:19:17.488Z,4.84
2017-03-02T03:20:17.517Z,4.72
2017-03-02T03:21:17.517Z,4.75
2017-03-02T03:23:17.582Z,4.72
2017-03-02T03:24:17.608Z,4.85
2017-03-02T03:25:17.616Z,4.82
2017-03-02T03:26:17.609Z,4.75
2017-03-02T03:28:17.639Z,4.82
2017-03-02T03:29:17.266Z,4.73
2017-03-02T03:30:17.676Z,4.72
2017-03-02T03:31:17.704Z,4.73
2017-03-02T03:32:17.706Z,4.8
2017-03-02T03:33:17.723Z,4.82
2017-03-02T03:34:32.268Z,4.73
2017-03-02T03:35:17.785Z,4.86
2017-03-02T03:36:17.804Z,4.75
2017-03-02T03:37:32.319Z,4.8
2017-03-02T03:38:17.819Z,4.88
2017-03-02T03:39:32.353Z,4.91
2017-03-02T03:40:17.845Z,4.86
2017-03-02T03:41:17.875Z,4.92
2017-03-02T03:42:17.885Z,4.89
2017-03-02T03:44:17.916Z,4.8
2017-03-02T03:45:17.924Z,4.89
2017-03-02T03:46:17.942Z,4.88
2017-03-02T03:47:17.963Z,4.91
2017-03-02T03:49:18.000Z,4.85
2017-03-02T03:50:32.540Z,4.92
2017-03-02T03:51:18.029Z,4.89
2017-03-02T03:52:18.153Z,4.86
2017-03-02T03:53:18.062Z,4.91
2017-03-02T03:54:18.083Z,5.02
2017-03-02T03:55:32.626Z,4.89
2017-03-02T03:56:18.133Z,4.97
2017-03-02T03:57:17.762Z,4.99
2017-03-02T03:58:18.172Z,4.84
2017-03-02T03:59:18.170Z,4.86
2017-03-02T04:00:18.181Z,5.03
2017-03-02T04:03:18.253Z,5.12
2017-03-02T04:04:18.253Z,5.15
2017-03-02T04:06:32.813Z,5.1
2017-03-02T04:07:32.834Z,5.2
2017-03-02T04:08:18.324Z,5.2
2017-03-02T04:09:18.337Z,5.18
2017-03-02T04:10:18.356Z,5.15
2017-03-02T04:11:18.369Z,5.17
2017-03-02T04:13:18.437Z,5.28
2017-03-02T04:14:18.431Z,5.22
2017-03-02T04:15:18.446Z,5.15
2017-03-02T04:16:18.490Z,5.2
2017-03-02T04:17:18.490Z,5.15
2017-03-02T04:18:18.499Z,5.22
2017-03-02T04:19:18.818Z,5.12
2017-03-02T04:20:18.524Z,5.27
2017-03-02T04:21:18.543Z,5.3
2017-03-02T04:22:33.087Z,5.3
2017-03-02T04:23:18.576Z,5.25
2017-03-02T04:24:18.628Z,5.28
2017-03-02T04:25:18.615Z,5.35
2017-03-02T04:26:18.653Z,5.35
2017-03-02T04:27:18.646Z,5.43
2017-03-02T04:28:18.681Z,5.45
2017-03-02T04:29:18.692Z,5.42
2017-03-02T04:30:18.698Z,5.39
2017-03-02T04:31:18.713Z,5.45
2017-03-02T04:32:18.369Z,5.48
2017-03-02T04:33:18.752Z,5.51
2017-03-02T04:34:18.764Z,5.49
2017-03-02T04:35:18.797Z,5.43
2017-03-02T04:36:18.814Z,5.51
2017-03-02T04:37:33.348Z,5.51
2017-03-02T04:38:18.479Z,5.51
2017-03-02T04:39:18.849Z,5.56
2017-03-02T04:40:18.882Z,5.58
2017-03-02T04:41:18.891Z,5.51
2017-03-02T04:42:33.433Z,5.56
2017-03-02T04:43:18.920Z,5.58
2017-03-02T04:44:18.566Z,5.54
2017-03-02T04:45:18.972Z,5.53
2017-03-02T04:46:18.996Z,5.56
2017-03-02T04:47:18.990Z,5.6
2017-03-02T04:48:19.007Z,5.54
2017-03-02T04:49:19.051Z,5.6
2017-03-02T04:50:18.676Z,5.63
2017-03-02T04:51:19.078Z,5.64
2017-03-02T04:52:18.691Z,5.67
2017-03-02T04:53:19.100Z,5.61
2017-03-02T04:54:19.114Z,5.68
2017-03-02T04:55:19.128Z,5.65
2017-03-02T04:56:19.165Z,5.71
2017-03-02T04:57:18.776Z,5.68
2017-03-02T04:58:18.797Z,5.78
2017-03-02T05:01:19.231Z,5.79
2017-03-02T05:02:19.261Z,5.72
2017-03-02T05:03:19.280Z,5.72
2017-03-02T05:04:19.304Z,5.72
2017-03-02T05:05:19.305Z,5.67
2017-03-02T05:06:18.944Z,5.74
2017-03-02T05:07:19.340Z,5.72
2017-03-02T05:08:19.359Z,5.67
2017-03-02T05:09:33.903Z,5.79
2017-03-02T05:10:19.407Z,5.83
2017-03-02T05:11:19.408Z,5.79
2017-03-02T05:12:33.953Z,5.79
2017-03-02T05:13:19.444Z,5.86
2017-03-02T05:14:33.986Z,5.79
2017-03-02T05:15:19.499Z,5.86
2017-03-02T05:16:19.497Z,5.85
2017-03-02T05:17:19.511Z,5.86
2017-03-02T05:18:19.535Z,5.94
2017-03-02T05:19:19.543Z,5.89
2017-03-02T05:20:19.181Z,5.85
2017-03-02T05:21:19.607Z,5.89
2017-03-02T05:22:19.605Z,5.97
2017-03-02T05:23:19.626Z,5.97
2017-03-02T05:24:19.645Z,5.99
2017-03-02T05:25:34.179Z,6.09
2017-03-02T05:26:19.669Z,6.09
2017-03-02T05:27:34.217Z,6
2017-03-02T05:28:19.703Z,5.96
2017-03-02T05:29:19.730Z,6.09
2017-03-02T05:30:34.266Z,6.18
2017-03-02T05:31:19.755Z,6.04
2017-03-02T05:32:19.788Z,6.09
2017-03-02T05:33:19.805Z,5.96
2017-03-02T05:34:19.817Z,6.01
2017-03-02T05:36:19.844Z,6.14
2017-03-02T05:37:19.501Z,6.04
2017-03-02T05:38:19.899Z,6.17
2017-03-02T05:39:19.897Z,6.09
2017-03-02T05:40:34.463Z,6.06
2017-03-02T05:41:34.458Z,6.08
2017-03-02T05:42:19.988Z,6.01
2017-03-02T05:43:19.967Z,6.08
2017-03-02T05:44:19.612Z,6.03
2017-03-02T05:45:20.001Z,6.08
2017-03-02T05:46:19.635Z,6.18
2017-03-02T05:47:20.060Z,6.15
2017-03-02T05:48:19.676Z,6.06
2017-03-02T05:49:20.071Z,6.09
2017-03-02T05:50:20.091Z,6.18
2017-03-02T05:51:19.730Z,6.22
2017-03-02T05:52:20.132Z,6.19
2017-03-02T05:53:20.146Z,6.17
2017-03-02T05:54:20.170Z,6.22
2017-03-02T05:56:34.729Z,6.19
2017-03-02T05:57:34.739Z,6.14
2017-03-02T05:58:20.237Z,6.19
2017-03-02T05:59:20.244Z,6.18
2017-03-02T06:00:20.289Z,6.25
2017-03-02T06:01:20.295Z,6.27
2017-03-02T06:02:19.540Z,6.25
2017-03-02T06:03:20.328Z,6.28
2017-03-02T06:05:20.368Z,6.25
2017-03-02T06:06:20.391Z,6.34
2017-03-02T06:07:20.400Z,6.34
2017-03-02T06:08:20.048Z,6.33
2017-03-02T06:09:20.434Z,6.31
2017-03-02T06:11:20.479Z,6.43
2017-03-02T06:12:34.622Z,6.46
2017-03-02T06:13:20.500Z,6.41
2017-03-02T06:14:20.537Z,6.55
2017-03-02T06:15:20.543Z,6.41
2017-03-02T06:16:20.178Z,6.33
2017-03-02T06:17:20.587Z,6.41
2017-03-02T06:19:20.603Z,6.44
2017-03-02T06:20:20.640Z,6.44
2017-03-02T06:21:20.639Z,6.4
2017-03-02T06:22:34.812Z,6.55
2017-03-02T06:23:20.710Z,6.58
2017-03-02T06:24:20.725Z,6.54
2017-03-02T06:25:20.714Z,6.62
2017-03-02T06:26:20.750Z,6.62
2017-03-02T06:27:20.378Z,6.59
2017-03-02T06:28:20.786Z,6.67
2017-03-02T06:29:20.782Z,6.59
2017-03-02T06:30:35.347Z,6.71
2017-03-02T06:31:20.840Z,6.74
2017-03-02T06:32:20.647Z,6.77
2017-03-02T06:33:35.382Z,6.73
2017-03-02T06:34:20.889Z,6.8
2017-03-02T06:35:20.905Z,6.73
2017-03-02T06:36:20.908Z,6.71
2017-03-02T06:37:20.540Z,6.74
2017-03-02T06:38:20.574Z,6.79
2017-03-02T06:39:20.968Z,6.88
2017-03-02T06:40:21.007Z,6.89
2017-03-02T06:41:20.996Z,6.95
2017-03-02T06:42:35.552Z,6.97
2017-03-02T06:43:20.651Z,6.97
2017-03-02T06:44:35.580Z,6.95
2017-03-02T06:45:20.697Z,6.94
2017-03-02T06:46:21.122Z,7.05
2017-03-02T06:47:21.122Z,6.98
2017-03-02T06:48:21.134Z,7.07
2017-03-02T06:50:21.176Z,7.07
2017-03-02T06:51:20.415Z,7.2
2017-03-02T06:52:21.205Z,7.28
2017-03-02T06:53:21.216Z,7.15
2017-03-02T06:54:21.246Z,7.25
2017-03-02T06:55:21.254Z,7.21
2017-03-02T06:56:21.285Z,7.28
2017-03-02T06:57:21.311Z,7.13
2017-03-02T06:58:21.325Z,7.12
2017-03-02T06:59:21.773Z,7.24
2017-03-02T07:00:35.515Z,7.37
2017-03-02T07:01:21.363Z,7.35
2017-03-02T07:02:21.395Z,7.43
2017-03-02T07:03:21.405Z,7.43
2017-03-02T07:05:21.453Z,7.39
2017-03-02T07:06:21.465Z,7.43
2017-03-02T07:07:21.472Z,7.52
2017-03-02T07:08:21.493Z,7.63
2017-03-02T07:09:21.509Z,7.67
2017-03-02T07:10:21.550Z,7.63
2017-03-02T07:11:21.163Z,7.6
2017-03-02T07:12:36.102Z,7.63
2017-03-02T07:13:21.599Z,7.63
2017-03-02T07:14:36.139Z,7.77
2017-03-02T07:16:35.782Z,7.67
2017-03-02T07:17:21.291Z,7.82
2017-03-02T07:18:21.688Z,7.85
2017-03-02T07:20:21.720Z,7.83
2017-03-02T07:21:21.738Z,7.98
2017-03-02T07:22:21.772Z,8
2017-03-02T07:23:21.773Z,7.98
2017-03-02T07:24:21.402Z,8.04
2017-03-02T07:25:21.842Z,8.19
2017-03-02T07:26:21.837Z,8.23
2017-03-02T07:27:21.848Z,8.29
2017-03-02T07:28:21.866Z,8.36
2017-03-02T07:29:21.888Z,8.44
2017-03-02T07:30:21.907Z,8.43
2017-03-02T07:31:21.924Z,8.44
2017-03-02T07:32:36.472Z,8.47
2017-03-02T07:33:21.964Z,8.41
2017-03-02T07:34:22.000Z,8.4
2017-03-02T07:35:22.001Z,8.38
2017-03-02T07:36:22.038Z,8.43
2017-03-02T07:37:22.054Z,8.45
2017-03-02T07:38:22.060Z,8.47
2017-03-02T07:39:22.078Z,8.48
2017-03-02T07:40:21.735Z,8.53
2017-03-02T07:41:22.121Z,8.59
2017-03-02T07:42:22.138Z,8.62
2017-03-02T07:43:22.158Z,8.55
2017-03-02T07:44:22.188Z,8.55
2017-03-02T07:45:22.195Z,8.55
2017-03-02T07:46:22.242Z,8.61
2017-03-02T07:48:22.281Z,8.59
2017-03-02T07:50:22.293Z,8.56
2017-03-02T07:51:22.324Z,8.62
2017-03-02T07:52:22.331Z,8.63
2017-03-02T07:53:22.364Z,8.53
2017-03-02T07:54:22.370Z,8.52
2017-03-02T07:55:22.002Z,8.56
2017-03-02T07:56:22.412Z,8.55
2017-03-02T07:57:22.428Z,8.44
2017-03-02T07:58:22.453Z,8.52
2017-03-02T07:59:22.475Z,8.47
2017-03-02T08:00:22.486Z,8.48
2017-03-02T08:02:22.544Z,8.48
2017-03-02T08:03:22.563Z,8.43
2017-03-02T08:04:22.572Z,8.43
2017-03-02T08:05:22.588Z,8.48
2017-03-02T08:06:22.622Z,8.5
2017-03-02T08:07:22.623Z,8.41
2017-03-02T08:08:22.656Z,8.48
2017-03-02T08:09:22.692Z,8.4
2017-03-02T08:10:22.685Z,8.34
2017-03-02T08:11:22.705Z,8.43
2017-03-02T08:12:22.720Z,8.55
2017-03-02T08:13:22.768Z,8.38
2017-03-02T08:14:22.761Z,8.41
2017-03-02T08:15:22.791Z,8.41
2017-03-02T08:16:22.422Z,8.36
2017-03-02T08:17:22.820Z,8.41
2017-03-02T08:18:22.839Z,8.37
2017-03-02T08:19:36.998Z,8.26
2017-03-02T08:20:22.889Z,8.23
2017-03-02T08:21:22.899Z,8.2
2017-03-02T08:22:22.942Z,8.16
2017-03-02T08:23:23.135Z,8.15
2017-03-02T08:24:22.985Z,8.15
2017-03-02T08:25:22.995Z,8.01
2017-03-02T08:26:23.008Z,7.87
2017-03-02T08:27:22.624Z,7.86
2017-03-02T08:28:23.060Z,7.89
2017-03-02T08:29:22.660Z,7.8
2017-03-02T08:30:23.111Z,7.8
2017-03-02T08:31:23.114Z,7.79
2017-03-02T08:32:22.723Z,7.74
2017-03-02T08:33:22.740Z,7.77
2017-03-02T08:34:23.168Z,7.77
2017-03-02T08:35:37.696Z,7.74
2017-03-02T08:36:23.200Z,7.74
2017-03-02T08:37:23.217Z,7.67
2017-03-02T08:38:37.751Z,7.6
2017-03-02T08:39:23.242Z,7.64
2017-03-02T08:41:23.293Z,7.6
2017-03-02T08:42:23.334Z,7.55
2017-03-02T08:43:23.315Z,7.31
2017-03-02T08:44:23.332Z,7.21
2017-03-02T08:45:23.355Z,7.13
2017-03-02T08:46:23.382Z,6.98
2017-03-02T08:47:23.398Z,6.95
2017-03-02T08:48:22.631Z,6.97
2017-03-02T08:49:23.449Z,6.81
2017-03-02T08:50:23.451Z,6.88
2017-03-02T08:51:37.991Z,6.8
2017-03-02T08:52:23.486Z,6.73
2017-03-02T08:53:23.528Z,6.7
2017-03-02T08:54:38.050Z,6.71
2017-03-02T08:55:23.535Z,6.71
2017-03-02T08:56:38.084Z,6.7
2017-03-02T08:57:23.577Z,6.73
2017-03-02T08:58:23.619Z,6.73
2017-03-02T08:59:23.621Z,6.74
2017-03-02T09:00:23.629Z,6.8
2017-03-02T09:01:23.654Z,6.71
2017-03-02T09:02:23.667Z,6.71
2017-03-02T09:03:23.696Z,6.81
2017-03-02T09:05:23.721Z,6.71
2017-03-02T09:06:23.743Z,6.8
2017-03-02T09:07:37.904Z,6.79
2017-03-02T09:08:23.395Z,6.76
2017-03-02T09:09:23.798Z,6.73
2017-03-02T09:10:23.426Z,6.79
2017-03-02T09:11:23.834Z,6.85
2017-03-02T09:12:23.851Z,6.85
2017-03-02T09:13:23.880Z,6.81
2017-03-02T09:14:23.886Z,6.85
2017-03-02T09:15:23.916Z,6.79
2017-03-02T09:16:23.938Z,6.85
2017-03-02T09:17:23.943Z,6.87
2017-03-02T09:18:23.979Z,6.94
2017-03-02T09:19:23.982Z,7.02
2017-03-02T09:20:24.009Z,6.99
2017-03-02T09:21:23.630Z,6.97
2017-03-02T09:22:38.565Z,7.09
2017-03-02T09:23:24.056Z,7.12
2017-03-02T09:24:24.071Z,7.12
2017-03-02T09:26:23.733Z,7.24
2017-03-02T09:27:24.128Z,7.24
2017-03-02T09:29:24.172Z,7.25
2017-03-02T09:30:24.184Z,7.35
2017-03-02T09:31:24.201Z,7.45
2017-03-02T09:32:24.224Z,7.31
2017-03-02T09:33:24.243Z,7.34
2017-03-02T09:34:23.890Z,7.39
2017-03-02T09:35:23.907Z,7.5
2017-03-02T09:36:24.296Z,7.58
2017-03-02T09:38:24.334Z,7.72
2017-03-02T09:39:24.380Z,7.79
2017-03-02T09:40:38.903Z,7.86
2017-03-02T09:41:24.004Z,8.08
2017-03-02T09:42:24.021Z,8.11
2017-03-02T09:43:24.430Z,8.29
2017-03-02T09:44:24.467Z,8.33
2017-03-02T09:45:24.468Z,8.44
2017-03-02T09:46:24.513Z,8.59
2017-03-02T09:47:24.509Z,8.61
2017-03-02T09:48:24.145Z,8.73
2017-03-02T09:49:24.544Z,8.7
2017-03-02T09:51:24.581Z,8.65
2017-03-02T09:52:24.602Z,8.7
2017-03-02T09:54:38.795Z,8.84
2017-03-02T09:55:24.661Z,8.89
2017-03-02T09:56:24.684Z,8.98
2017-03-02T09:57:24.705Z,8.79
2017-03-02T09:58:24.722Z,8.66
2017-03-02T09:59:24.365Z,8.56
2017-03-02T10:00:24.773Z,8.5
2017-03-02T10:01:24.783Z,8.48
2017-03-02T10:02:24.809Z,8.48
2017-03-02T10:03:24.819Z,8.55
2017-03-02T10:04:24.842Z,8.37
2017-03-02T10:05:24.866Z,8.41
2017-03-02T10:06:24.878Z,8.44
2017-03-02T10:07:24.151Z,8.44
2017-03-02T10:08:24.550Z,8.44
2017-03-02T10:09:24.948Z,8.33
2017-03-02T10:11:24.219Z,8.34
2017-03-02T10:12:24.612Z,8.33
2017-03-02T10:13:25.052Z,8.36
2017-03-02T10:14:25.048Z,8.28
2017-03-02T10:15:24.294Z,8.34
2017-03-02T10:16:25.136Z,8.33
2017-03-02T10:17:25.109Z,8.37
2017-03-02T10:19:25.142Z,8.2
2017-03-02T10:20:25.155Z,8.22
2017-03-02T10:21:25.178Z,8.19
2017-03-02T10:22:24.824Z,8.18
2017-03-02T10:23:25.217Z,8.2
2017-03-02T10:24:25.238Z,8.18
2017-03-02T10:25:25.256Z,8.18
2017-03-02T10:26:39.803Z,8.22
2017-03-02T10:27:25.295Z,8.2
2017-03-02T10:28:25.316Z,8.36
2017-03-02T10:29:25.361Z,8.33
2017-03-02T10:30:39.884Z,8.4
2017-03-02T10:31:25.400Z,8.37
2017-03-02T10:32:25.401Z,8.44
2017-03-02T10:34:25.433Z,8.38
2017-03-02T10:35:25.466Z,8.45
2017-03-02T10:36:25.485Z,8.4
2017-03-02T10:37:25.512Z,8.41
2017-03-02T10:38:25.515Z,8.4
2017-03-02T10:39:40.071Z,8.36
2017-03-02T10:40:25.596Z,8.38
2017-03-02T10:41:25.574Z,8.33
2017-03-02T10:42:40.130Z,8.37
2017-03-02T10:43:25.613Z,8.28
2017-03-02T10:44:25.634Z,8.2
2017-03-02T10:45:25.652Z,8.12
2017-03-02T10:46:25.683Z,8.07
2017-03-02T10:47:40.222Z,7.93
2017-03-02T10:48:26.111Z,7.85
2017-03-02T10:49:25.738Z,7.79
2017-03-02T10:50:25.381Z,7.63
2017-03-02T10:51:25.787Z,7.63
2017-03-02T10:53:25.817Z,7.57
2017-03-02T10:54:40.369Z,7.52
2017-03-02T10:55:25.465Z,7.48
2017-03-02T10:56:25.874Z,7.34
2017-03-02T10:57:40.421Z,7.21
2017-03-02T10:58:25.911Z,7.15
2017-03-02T10:59:25.938Z,7.2
2017-03-02T11:00:40.495Z,7.09
2017-03-02T11:01:25.588Z,7.07
2017-03-02T11:02:25.606Z,7.06
2017-03-02T11:03:26.022Z,7.12
2017-03-02T11:04:26.035Z,7.07
2017-03-02T11:05:26.049Z,7.09
2017-03-02T11:06:26.101Z,7.06
2017-03-02T11:08:26.100Z,7.15
2017-03-02T11:09:26.124Z,7.09
2017-03-02T11:10:26.161Z,7.15
2017-03-02T11:11:26.176Z,7.15
2017-03-02T11:12:25.792Z,7.12
2017-03-02T11:13:25.815Z,7.25
2017-03-02T11:14:26.214Z,7.27
2017-03-02T11:15:26.241Z,7.21
2017-03-02T11:16:26.253Z,7.27
2017-03-02T11:17:26.285Z,7.34
2017-03-02T11:18:26.298Z,7.25
2017-03-02T11:19:26.312Z,7.25
2017-03-02T11:20:26.328Z,7.27
2017-03-02T11:21:26.349Z,7.24
2017-03-02T11:22:26.370Z,7.23
2017-03-02T11:23:26.395Z,7.24
2017-03-02T11:25:26.425Z,7.31
2017-03-02T11:26:26.455Z,7.39
2017-03-02T11:27:26.465Z,7.35
2017-03-02T11:28:26.944Z,7.35
2017-03-02T11:29:41.030Z,7.39
2017-03-02T11:30:26.522Z,7.39
2017-03-02T11:31:26.543Z,7.4
2017-03-02T11:32:41.088Z,7.46
2017-03-02T11:33:41.105Z,7.43
2017-03-02T11:34:26.607Z,7.37
2017-03-02T11:35:26.639Z,7.35
2017-03-02T11:36:26.661Z,7.37
2017-03-02T11:37:26.276Z,7.32
2017-03-02T11:40:26.733Z,7.43
2017-03-02T11:41:26.340Z,7.5
2017-03-02T11:42:26.362Z,7.53
2017-03-02T11:43:26.767Z,7.58
2017-03-02T11:45:41.348Z,7.64
2017-03-02T11:46:26.826Z,7.58
2017-03-02T11:47:26.865Z,7.61
2017-03-02T11:48:26.865Z,7.63
2017-03-02T11:49:26.496Z,7.71
2017-03-02T11:50:26.912Z,7.83
2017-03-02T11:51:26.920Z,7.85
2017-03-02T11:52:26.938Z,8.07
2017-03-02T11:53:26.967Z,8.04
2017-03-02T11:54:26.975Z,8.07
2017-03-02T11:55:26.998Z,8
2017-03-02T11:56:27.015Z,8.01
2017-03-02T11:57:27.035Z,8.07
2017-03-02T11:58:27.053Z,8.07
2017-03-02T11:59:27.072Z,8.19
2017-03-02T12:00:26.705Z,8.1
2017-03-02T12:01:41.639Z,8.12
2017-03-02T12:02:26.745Z,8.1
2017-03-02T12:03:27.152Z,8.23
2017-03-02T12:04:41.702Z,8.19
2017-03-02T12:05:26.804Z,8.26
2017-03-02T12:06:27.208Z,8.19
2017-03-02T12:07:26.852Z,8.29
2017-03-02T12:08:26.862Z,8.36
2017-03-02T12:09:26.898Z,8.37
2017-03-02T12:10:26.902Z,8.41
2017-03-02T12:11:27.310Z,8.38
2017-03-02T12:12:27.335Z,8.38
2017-03-02T12:14:27.378Z,8.43
2017-03-02T12:15:27.013Z,8.36
2017-03-02T12:16:27.426Z,8.36
2017-03-02T12:17:41.962Z,8.25
2017-03-02T12:18:27.125Z,8.29
2017-03-02T12:19:27.468Z,8.07
2017-03-02T12:20:27.099Z,8.01
2017-03-02T12:21:26.735Z,7.92
2017-03-02T12:22:26.768Z,7.82
2017-03-02T12:23:27.160Z,7.82
2017-03-02T12:24:27.193Z,7.85
2017-03-02T12:26:27.602Z,7.77
2017-03-02T12:27:27.632Z,7.77
2017-03-02T12:28:26.867Z,7.69
2017-03-02T12:29:27.679Z,7.6
2017-03-02T12:30:27.682Z,7.69
2017-03-02T12:31:27.315Z,7.71
2017-03-02T12:33:27.745Z,7.6
2017-03-02T12:34:27.759Z,7.57
2017-03-02T12:35:27.780Z,7.68
2017-03-02T12:36:42.328Z,7.79
2017-03-02T12:37:27.433Z,7.79
2017-03-02T12:38:27.849Z,7.64
2017-03-02T12:39:27.857Z,7.69
2017-03-02T12:40:27.893Z,7.72
2017-03-02T12:41:27.896Z,7.79
2017-03-02T12:42:27.921Z,7.85
2017-03-02T12:43:27.934Z,7.9
2017-03-02T12:45:27.974Z,7.8
2017-03-02T12:46:27.992Z,7.72
2017-03-02T12:47:27.626Z,7.67
2017-03-02T12:48:28.035Z,7.68
2017-03-02T12:49:28.075Z,7.74
2017-03-02T12:50:42.603Z,7.72
2017-03-02T12:51:28.102Z,7.79
2017-03-02T12:52:28.129Z,7.8
2017-03-02T12:53:28.133Z,7.79
2017-03-02T12:54:28.174Z,7.61
2017-03-02T12:55:28.169Z,7.68
2017-03-02T12:56:28.187Z,7.55
2017-03-02T12:57:28.218Z,7.63
2017-03-02T12:58:27.844Z,7.63
2017-03-02T12:59:28.251Z,7.6
2017-03-02T13:00:28.265Z,7.53
2017-03-02T13:01:28.297Z,7.67
2017-03-02T13:02:28.342Z,7.69
2017-03-02T13:04:42.872Z,7.69
2017-03-02T13:05:28.385Z,7.61
2017-03-02T13:06:28.388Z,7.64
2017-03-02T13:07:28.022Z,7.64
2017-03-02T13:08:28.428Z,7.6
2017-03-02T13:09:28.443Z,7.63
2017-03-02T13:10:28.460Z,7.61
2017-03-02T13:11:28.481Z,7.53
2017-03-02T13:12:28.500Z,7.61
2017-03-02T13:14:28.538Z,7.69
2017-03-02T13:15:28.570Z,7.72
2017-03-02T13:16:28.598Z,7.64
2017-03-02T13:17:28.596Z,7.64
2017-03-02T13:18:28.615Z,7.61
2017-03-02T13:19:28.632Z,7.63
2017-03-02T13:21:28.704Z,7.48
2017-03-02T13:22:28.704Z,7.68
2017-03-02T13:23:28.708Z,7.63
2017-03-02T13:24:28.730Z,7.61
2017-03-02T13:25:28.747Z,7.71
2017-03-02T13:26:43.294Z,7.64
2017-03-02T13:27:28.804Z,7.61
2017-03-02T13:28:28.816Z,7.74
2017-03-02T13:29:28.823Z,7.68
2017-03-02T13:30:28.849Z,7.64
2017-03-02T13:31:43.401Z,7.63
2017-03-02T13:32:28.892Z,7.53
2017-03-02T13:33:28.910Z,7.68
2017-03-02T13:34:43.454Z,7.61
2017-03-02T13:35:28.939Z,7.58
2017-03-02T13:36:43.499Z,7.55
2017-03-02T13:37:28.982Z,7.6
2017-03-02T13:38:28.615Z,7.48
2017-03-02T13:39:29.018Z,7.45
2017-03-02T13:40:29.042Z,7.53
2017-03-02T13:41:43.582Z,7.49
2017-03-02T13:42:29.081Z,7.39
2017-03-02T13:44:29.120Z,7.28
2017-03-02T13:45:29.140Z,7.23
2017-03-02T13:46:29.160Z,7.25
2017-03-02T13:47:29.174Z,7.25
2017-03-02T13:48:29.206Z,7.32
2017-03-02T13:49:28.822Z,7.23
2017-03-02T13:50:29.255Z,7.31
2017-03-02T13:51:29.245Z,7.23
2017-03-02T13:52:43.791Z,7.21
2017-03-02T13:53:29.283Z,7.25
2017-03-02T13:54:29.303Z,7.27
2017-03-02T13:55:29.318Z,7.23
2017-03-02T13:56:29.350Z,7.31
2017-03-02T13:57:43.886Z,7.28
2017-03-02T13:58:28.601Z,7.24
2017-03-02T13:59:29.397Z,7.25
2017-03-02T14:00:43.555Z,7.39
2017-03-02T14:01:29.434Z,7.37
2017-03-02T14:02:29.458Z,7.42
2017-03-02T14:03:44.010Z,7.37
2017-03-02T14:04:29.114Z,7.37
2017-03-02T14:06:29.528Z,7.39
2017-03-02T14:07:44.088Z,7.39
2017-03-02T14:08:44.098Z,7.34
2017-03-02T14:09:28.818Z,7.4
2017-03-02T14:10:29.233Z,7.53
2017-03-02T14:11:29.623Z,7.58
2017-03-02T14:12:44.186Z,7.5
2017-03-02T14:13:29.301Z,7.61
2017-03-02T14:14:29.678Z,7.58
2017-03-02T14:15:29.313Z,7.49
2017-03-02T14:16:29.331Z,7.53
2017-03-02T14:18:29.756Z,7.5
2017-03-02T14:19:29.786Z,7.52
2017-03-02T14:20:29.413Z,7.45
2017-03-02T14:21:29.819Z,7.34
2017-03-02T14:22:29.848Z,7.37
2017-03-02T14:23:29.850Z,7.34
2017-03-02T14:24:29.869Z,7.39
2017-03-02T14:25:29.888Z,7.24
2017-03-02T14:26:29.926Z,7.21